Lahaina, HI

6:28 AM HST on May 24, 2015 (GMT -1000)
puamana | | Change Station
CLOSE
Current Station
Personal Weather Station
Location: Lahaina, HI
Elevation: 36 ft
Nearby Weather Stations

Elev 36 ft 20.86 °N, 156.67 °W | Updated 6 minutes ago

Mostly Cloudy
Mostly Cloudy
68.9 °F
Feels Like 68.9 °F
N
0.0
Wind Variable Wind from NE
Gusts 0.0 mph

Today
High -- | Low -- °F
--% Chance of Precip.
Yesterday
High -- | Low -- °F
Precip. -- in
5:46 AM 7:01 PM
Waxing Crescent, 40% visible
Pressure 30.07 in
Visibility 15.0 miles
Clouds Few 3500 ft
Scattered Clouds 4500 ft
Mostly Cloudy 10000 ft
Dew Point 60 °F
Humidity 74%
Rainfall 0.00 in
Snow Depth Not available.
UV 0 out of 12
Pollen Not available.
Air Quality Not available.
Flu Activity Local Activity
SPECI PHJH 241600Z 06010KT 15SM FEW035 SCT045 BKN100 20/15 A3007

More Conditions Fewer Conditions

Pressure 30.07 in
Visibility 15.0 miles
Clouds Few 3500 ft
Scattered Clouds 4500 ft
Mostly Cloudy 10000 ft
Dew Point 60 °F
Humidity 74%
Rainfall 0.00 in
Snow Depth Not available.
UV 0 out of 12
Pollen Not available.
Air Quality Not available.
Flu Activity Local Activity
SPECI PHJH 241600Z 06010KT 15SM FEW035 SCT045 BKN100 20/15 A3007

More Conditions Fewer Conditions

10-Day Weather Forecast

Almanac

Astronomy

May. 24, 2015 Rise Set
Actual Time
Civil Twilight
Nautical Twilight
Astronomical Twilight
Moon
Length of Visible Light
Length of Day
Tomorrow will be .
, % of the Moon is Illuminated

Today's Extremes

State Highs State Lows

Community

WunderPhotos

Upload Photos

1,823,781 photos uploaded!

WunderBlogs® & News

Nearby

Air Quality

  Air Quality AQ Index Pollutant
Not available.

Snow Depth

Station Depth Elevation

Earthquake Activity

City Distance Mag. Time & Date
Minimum magnitude displayed is 2.5.

Coastal Water Temperatures

Place Temperature

Stations

Nearby Weather Stations

Station Location Temp. Windchill Dew Point Humidity Wind Precip. Elev Updated Type